sensor_id;sensor_type;location;lat;lon;timestamp;pressure;altitude;pressure_sealevel;temperature
12234;BMP180;6179;51.748;8.728;2023-09-08T00:02:46;230388.00;;;222.90
12234;BMP180;6179;51.748;8.728;2023-09-08T00:08:46;230388.00;;;222.90
12234;BMP180;6179;51.748;8.728;2023-09-08T00:14:47;230388.00;;;222.90
12234;BMP180;6179;51.748;8.728;2023-09-08T00:20:48;230388.00;;;222.90
12234;BMP180;6179;51.748;8.728;2023-09-08T00:26:49;230388.00;;;222.90
12234;BMP180;6179;51.748;8.728;2023-09-08T00:32:49;230388.00;;;222.90
12234;BMP180;6179;51.748;8.728;2023-09-08T00:38:50;230388.00;;;222.90
12234;BMP180;6179;51.748;8.728;2023-09-08T00:44:51;230388.00;;;222.90
12234;BMP180;6179;51.748;8.728;2023-09-08T00:50:52;230388.00;;;222.90
12234;BMP180;6179;51.748;8.728;2023-09-08T00:56:56;230388.00;;;222.90
12234;BMP180;6179;51.748;8.728;2023-09-08T01:03:00;230388.00;;;222.90
12234;BMP180;6179;51.748;8.728;2023-09-08T01:09:01;230388.00;;;222.90
12234;BMP180;6179;51.748;8.728;2023-09-08T01:15:04;230388.00;;;222.90
12234;BMP180;6179;51.748;8.728;2023-09-08T01:27:48;230388.00;;;222.90
12234;BMP180;6179;51.748;8.728;2023-09-08T01:33:50;230388.00;;;222.90
12234;BMP180;6179;51.748;8.728;2023-09-08T01:39:51;230388.00;;;222.90
12234;BMP180;6179;51.748;8.728;2023-09-08T01:45:52;230388.00;;;222.90
12234;BMP180;6179;51.748;8.728;2023-09-08T01:51:52;230388.00;;;222.90
12234;BMP180;6179;51.748;8.728;2023-09-08T01:57:53;230388.00;;;222.90
12234;BMP180;6179;51.748;8.728;2023-09-08T02:03:54;230388.00;;;222.90
12234;BMP180;6179;51.748;8.728;2023-09-08T02:09:55;230388.00;;;222.90
12234;BMP180;6179;51.748;8.728;2023-09-08T02:15:55;230388.00;;;222.90
12234;BMP180;6179;51.748;8.728;2023-09-08T02:21:56;230388.00;;;222.90
12234;BMP180;6179;51.748;8.728;2023-09-08T02:27:57;230388.00;;;222.90
12234;BMP180;6179;51.748;8.728;2023-09-08T02:33:58;230388.00;;;222.90
12234;BMP180;6179;51.748;8.728;2023-09-08T02:39:59;230388.00;;;222.90
12234;BMP180;6179;51.748;8.728;2023-09-08T02:45:59;230388.00;;;222.90
12234;BMP180;6179;51.748;8.728;2023-09-08T02:52:00;230388.00;;;222.90
12234;BMP180;6179;51.748;8.728;2023-09-08T02:58:01;230388.00;;;222.90
12234;BMP180;6179;51.748;8.728;2023-09-08T03:04:02;230388.00;;;222.90
12234;BMP180;6179;51.748;8.728;2023-09-08T03:10:03;230388.00;;;222.90
12234;BMP180;6179;51.748;8.728;2023-09-08T03:16:06;230388.00;;;222.90
12234;BMP180;6179;51.748;8.728;2023-09-08T03:22:07;230388.00;;;222.90
12234;BMP180;6179;51.748;8.728;2023-09-08T03:28:08;230388.00;;;222.90
12234;BMP180;6179;51.748;8.728;2023-09-08T03:34:08;230388.00;;;222.90
12234;BMP180;6179;51.748;8.728;2023-09-08T03:40:10;230388.00;;;222.90
12234;BMP180;6179;51.748;8.728;2023-09-08T03:46:10;230388.00;;;222.90
12234;BMP180;6179;51.748;8.728;2023-09-08T03:52:11;230388.00;;;222.90
12234;BMP180;6179;51.748;8.728;2023-09-08T03:58:12;230388.00;;;222.90
12234;BMP180;6179;51.748;8.728;2023-09-08T04:04:13;230388.00;;;222.90
12234;BMP180;6179;51.748;8.728;2023-09-08T04:10:14;230388.00;;;222.90
12234;BMP180;6179;51.748;8.728;2023-09-08T04:16:15;230388.00;;;222.90
12234;BMP180;6179;51.748;8.728;2023-09-08T04:22:16;230388.00;;;222.90
12234;BMP180;6179;51.748;8.728;2023-09-08T04:28:16;230388.00;;;222.90
12234;BMP180;6179;51.748;8.728;2023-09-08T04:34:17;230388.00;;;222.90
12234;BMP180;6179;51.748;8.728;2023-09-08T04:40:18;230388.00;;;222.90
12234;BMP180;6179;51.748;8.728;2023-09-08T04:46:19;230388.00;;;222.90
12234;BMP180;6179;51.748;8.728;2023-09-08T04:52:20;230388.00;;;222.90
12234;BMP180;6179;51.748;8.728;2023-09-08T04:58:21;230388.00;;;222.90
12234;BMP180;6179;51.748;8.728;2023-09-08T05:04:22;230388.00;;;222.90
12234;BMP180;6179;51.748;8.728;2023-09-08T05:10:23;230388.00;;;222.90
12234;BMP180;6179;51.748;8.728;2023-09-08T05:16:24;230388.00;;;222.90
12234;BMP180;6179;51.748;8.728;2023-09-08T05:22:38;230388.00;;;222.90
12234;BMP180;6179;51.748;8.728;2023-09-08T05:28:40;230388.00;;;222.90
12234;BMP180;6179;51.748;8.728;2023-09-08T05:34:40;230388.00;;;222.90
12234;BMP180;6179;51.748;8.728;2023-09-08T05:40:41;230388.00;;;222.90
12234;BMP180;6179;51.748;8.728;2023-09-08T05:46:42;230388.00;;;222.90
12234;BMP180;6179;51.748;8.728;2023-09-08T05:52:43;230388.00;;;222.90
12234;BMP180;6179;51.748;8.728;2023-09-08T05:58:44;230388.00;;;222.90
12234;BMP180;6179;51.748;8.728;2023-09-08T06:04:45;230388.00;;;222.90
12234;BMP180;6179;51.748;8.728;2023-09-08T06:10:45;230388.00;;;222.90
12234;BMP180;6179;51.748;8.728;2023-09-08T06:16:46;230388.00;;;222.90
12234;BMP180;6179;51.748;8.728;2023-09-08T06:22:47;230388.00;;;222.90
12234;BMP180;6179;51.748;8.728;2023-09-08T06:28:48;230388.00;;;222.90
12234;BMP180;6179;51.748;8.728;2023-09-08T06:34:49;230388.00;;;222.90
12234;BMP180;6179;51.748;8.728;2023-09-08T06:40:49;230388.00;;;222.90
12234;BMP180;6179;51.748;8.728;2023-09-08T06:46:53;230388.00;;;222.90
12234;BMP180;6179;51.748;8.728;2023-09-08T06:52:56;230388.00;;;222.90
12234;BMP180;6179;51.748;8.728;2023-09-08T06:58:57;230388.00;;;222.90
12234;BMP180;6179;51.748;8.728;2023-09-08T07:05:00;230388.00;;;222.90
12234;BMP180;6179;51.748;8.728;2023-09-08T07:11:06;230388.00;;;222.90
12234;BMP180;6179;51.748;8.728;2023-09-08T07:17:07;230388.00;;;222.90
12234;BMP180;6179;51.748;8.728;2023-09-08T07:23:08;230388.00;;;222.90
12234;BMP180;6179;51.748;8.728;2023-09-08T07:29:09;230388.00;;;222.90
12234;BMP180;6179;51.748;8.728;2023-09-08T07:35:10;230388.00;;;222.90
12234;BMP180;6179;51.748;8.728;2023-09-08T07:41:14;230388.00;;;222.90
12234;BMP180;6179;51.748;8.728;2023-09-08T07:53:17;230388.00;;;222.90
12234;BMP180;6179;51.748;8.728;2023-09-08T07:59:18;230388.00;;;222.90
12234;BMP180;6179;51.748;8.728;2023-09-08T08:05:18;230388.00;;;222.90
12234;BMP180;6179;51.748;8.728;2023-09-08T08:11:19;230388.00;;;222.90
12234;BMP180;6179;51.748;8.728;2023-09-08T08:17:20;230388.00;;;222.90
12234;BMP180;6179;51.748;8.728;2023-09-08T08:23:22;230388.00;;;222.90
12234;BMP180;6179;51.748;8.728;2023-09-08T08:29:23;230388.00;;;222.90
12234;BMP180;6179;51.748;8.728;2023-09-08T08:35:23;230388.00;;;222.90
12234;BMP180;6179;51.748;8.728;2023-09-08T08:41:24;230388.00;;;222.90
12234;BMP180;6179;51.748;8.728;2023-09-08T08:47:29;230388.00;;;222.90
12234;BMP180;6179;51.748;8.728;2023-09-08T08:53:32;230388.00;;;222.90
12234;BMP180;6179;51.748;8.728;2023-09-08T08:59:34;230388.00;;;222.90
12234;BMP180;6179;51.748;8.728;2023-09-08T09:05:39;230388.00;;;222.90
12234;BMP180;6179;51.748;8.728;2023-09-08T09:11:40;230388.00;;;222.90
12234;BMP180;6179;51.748;8.728;2023-09-08T09:17:41;230388.00;;;222.90
12234;BMP180;6179;51.748;8.728;2023-09-08T09:23:42;230388.00;;;222.90
12234;BMP180;6179;51.748;8.728;2023-09-08T09:29:48;230388.00;;;222.90
12234;BMP180;6179;51.748;8.728;2023-09-08T09:35:52;230388.00;;;222.90
12234;BMP180;6179;51.748;8.728;2023-09-08T09:41:56;230388.00;;;222.90
12234;BMP180;6179;51.748;8.728;2023-09-08T09:47:57;230388.00;;;222.90
12234;BMP180;6179;51.748;8.728;2023-09-08T09:53:58;230388.00;;;222.90
12234;BMP180;6179;51.748;8.728;2023-09-08T09:59:59;230388.00;;;222.90
12234;BMP180;6179;51.748;8.728;2023-09-08T10:06:02;230388.00;;;222.90
12234;BMP180;6179;51.748;8.728;2023-09-08T10:12:05;230388.00;;;222.90
12234;BMP180;6179;51.748;8.728;2023-09-08T10:18:07;230388.00;;;222.90
12234;BMP180;6179;51.748;8.728;2023-09-08T10:24:22;230388.00;;;222.90
12234;BMP180;6179;51.748;8.728;2023-09-08T10:30:25;230388.00;;;222.90
12234;BMP180;6179;51.748;8.728;2023-09-08T10:36:26;230388.00;;;222.90
12234;BMP180;6179;51.748;8.728;2023-09-08T10:42:28;230388.00;;;222.90
12234;BMP180;6179;51.748;8.728;2023-09-08T10:48:42;230388.00;;;222.90
12234;BMP180;6179;51.748;8.728;2023-09-08T10:54:48;230388.00;;;222.90
12234;BMP180;6179;51.748;8.728;2023-09-08T11:00:59;230388.00;;;222.90
12234;BMP180;6179;51.748;8.728;2023-09-08T11:07:01;108425.00;;;222.90
12234;BMP180;6179;51.748;8.728;2023-09-08T11:13:04;108424.00;;;222.90
12234;BMP180;6179;51.748;8.728;2023-09-08T11:19:05;108423.00;;;222.90
12234;BMP180;6179;51.748;8.728;2023-09-08T11:25:07;108422.00;;;222.90
12234;BMP180;6179;51.748;8.728;2023-09-08T11:31:11;108427.00;;;222.90
12234;BMP180;6179;51.748;8.728;2023-09-08T11:37:15;108424.00;;;222.90
12234;BMP180;6179;51.748;8.728;2023-09-08T11:43:19;108425.00;;;222.90
12234;BMP180;6179;51.748;8.728;2023-09-08T11:49:20;108423.00;;;222.90
12234;BMP180;6179;51.748;8.728;2023-09-08T11:55:23;230388.00;;;222.90
12234;BMP180;6179;51.748;8.728;2023-09-08T12:01:25;230388.00;;;222.90
12234;BMP180;6179;51.748;8.728;2023-09-08T12:07:26;108426.00;;;222.90
12234;BMP180;6179;51.748;8.728;2023-09-08T12:13:27;108422.00;;;222.90
12234;BMP180;6179;51.748;8.728;2023-09-08T12:19:31;108425.00;;;222.90
12234;BMP180;6179;51.748;8.728;2023-09-08T12:25:32;108430.00;;;222.90
12234;BMP180;6179;51.748;8.728;2023-09-08T12:31:34;108422.00;;;222.90
12234;BMP180;6179;51.748;8.728;2023-09-08T12:37:35;108428.00;;;222.90
12234;BMP180;6179;51.748;8.728;2023-09-08T12:43:36;230388.00;;;222.90
12234;BMP180;6179;51.748;8.728;2023-09-08T12:49:37;230388.00;;;222.90
12234;BMP180;6179;51.748;8.728;2023-09-08T12:55:38;230388.00;;;222.90
12234;BMP180;6179;51.748;8.728;2023-09-08T13:01:39;108424.00;;;222.90
12234;BMP180;6179;51.748;8.728;2023-09-08T13:07:40;230388.00;;;222.90
12234;BMP180;6179;51.748;8.728;2023-09-08T13:13:40;108427.00;;;222.90
12234;BMP180;6179;51.748;8.728;2023-09-08T13:19:42;108425.00;;;222.90
12234;BMP180;6179;51.748;8.728;2023-09-08T13:25:43;108430.00;;;222.90
12234;BMP180;6179;51.748;8.728;2023-09-08T13:31:45;108424.00;;;222.90
12234;BMP180;6179;51.748;8.728;2023-09-08T13:37:46;230388.00;;;222.90
12234;BMP180;6179;51.748;8.728;2023-09-08T13:43:46;230388.00;;;222.90
12234;BMP180;6179;51.748;8.728;2023-09-08T13:49:47;230388.00;;;222.90
12234;BMP180;6179;51.748;8.728;2023-09-08T13:55:48;230388.00;;;222.90
12234;BMP180;6179;51.748;8.728;2023-09-08T14:01:49;230388.00;;;222.90
12234;BMP180;6179;51.748;8.728;2023-09-08T14:07:49;230388.00;;;222.90
12234;BMP180;6179;51.748;8.728;2023-09-08T14:13:50;230388.00;;;222.90
12234;BMP180;6179;51.748;8.728;2023-09-08T14:19:51;230388.00;;;222.90
12234;BMP180;6179;51.748;8.728;2023-09-08T14:25:52;230388.00;;;222.90
12234;BMP180;6179;51.748;8.728;2023-09-08T14:31:53;230388.00;;;222.90
12234;BMP180;6179;51.748;8.728;2023-09-08T14:37:53;230388.00;;;222.90
12234;BMP180;6179;51.748;8.728;2023-09-08T14:43:54;230388.00;;;222.90
12234;BMP180;6179;51.748;8.728;2023-09-08T14:49:55;230388.00;;;222.90
12234;BMP180;6179;51.748;8.728;2023-09-08T14:55:58;230388.00;;;222.90
12234;BMP180;6179;51.748;8.728;2023-09-08T15:01:59;230388.00;;;222.90
12234;BMP180;6179;51.748;8.728;2023-09-08T15:08:01;230388.00;;;222.90
12234;BMP180;6179;51.748;8.728;2023-09-08T15:14:02;230388.00;;;222.90
12234;BMP180;6179;51.748;8.728;2023-09-08T15:20:03;230388.00;;;222.90
12234;BMP180;6179;51.748;8.728;2023-09-08T15:26:04;108424.00;;;222.90
12234;BMP180;6179;51.748;8.728;2023-09-08T15:32:05;230388.00;;;222.90
12234;BMP180;6179;51.748;8.728;2023-09-08T15:38:09;230388.00;;;222.90
12234;BMP180;6179;51.748;8.728;2023-09-08T15:44:10;230388.00;;;222.90
12234;BMP180;6179;51.748;8.728;2023-09-08T15:50:10;230388.00;;;222.90
12234;BMP180;6179;51.748;8.728;2023-09-08T15:56:12;230388.00;;;222.90
12234;BMP180;6179;51.748;8.728;2023-09-08T16:02:13;230388.00;;;222.90
12234;BMP180;6179;51.748;8.728;2023-09-08T16:08:13;230388.00;;;222.90
12234;BMP180;6179;51.748;8.728;2023-09-08T16:14:14;230388.00;;;222.90
12234;BMP180;6179;51.748;8.728;2023-09-08T16:20:15;230388.00;;;222.90
12234;BMP180;6179;51.748;8.728;2023-09-08T16:26:16;230388.00;;;222.90
12234;BMP180;6179;51.748;8.728;2023-09-08T16:32:16;230388.00;;;222.90
12234;BMP180;6179;51.748;8.728;2023-09-08T16:38:17;230388.00;;;222.90
12234;BMP180;6179;51.748;8.728;2023-09-08T16:44:18;230388.00;;;222.90
12234;BMP180;6179;51.748;8.728;2023-09-08T16:50:19;230388.00;;;222.90
12234;BMP180;6179;51.748;8.728;2023-09-08T16:56:19;230388.00;;;222.90
12234;BMP180;6179;51.748;8.728;2023-09-08T17:02:20;230388.00;;;222.90
12234;BMP180;6179;51.748;8.728;2023-09-08T17:08:21;230388.00;;;222.90
12234;BMP180;6179;51.748;8.728;2023-09-08T17:14:22;230388.00;;;222.90
12234;BMP180;6179;51.748;8.728;2023-09-08T17:20:23;230388.00;;;222.90
12234;BMP180;6179;51.748;8.728;2023-09-08T17:26:24;230388.00;;;222.90
12234;BMP180;6179;51.748;8.728;2023-09-08T17:32:24;230388.00;;;222.90
12234;BMP180;6179;51.748;8.728;2023-09-08T17:38:25;230388.00;;;222.90
12234;BMP180;6179;51.748;8.728;2023-09-08T17:44:26;230388.00;;;222.90
12234;BMP180;6179;51.748;8.728;2023-09-08T17:50:27;230388.00;;;222.90
12234;BMP180;6179;51.748;8.728;2023-09-08T17:56:27;230388.00;;;222.90
12234;BMP180;6179;51.748;8.728;2023-09-08T18:02:28;230388.00;;;222.90
12234;BMP180;6179;51.748;8.728;2023-09-08T18:08:29;230388.00;;;222.90
12234;BMP180;6179;51.748;8.728;2023-09-08T18:14:30;108425.00;;;222.90
12234;BMP180;6179;51.748;8.728;2023-09-08T18:20:33;108420.00;;;222.90
12234;BMP180;6179;51.748;8.728;2023-09-08T18:26:34;108422.00;;;222.90
12234;BMP180;6179;51.748;8.728;2023-09-08T18:32:35;108426.00;;;222.90
12234;BMP180;6179;51.748;8.728;2023-09-08T18:38:36;108418.00;;;222.90
12234;BMP180;6179;51.748;8.728;2023-09-08T18:44:37;108421.00;;;222.90
12234;BMP180;6179;51.748;8.728;2023-09-08T18:50:42;108422.00;;;222.90
12234;BMP180;6179;51.748;8.728;2023-09-08T18:56:43;108420.00;;;222.90
12234;BMP180;6179;51.748;8.728;2023-09-08T19:02:44;108423.00;;;222.90
12234;BMP180;6179;51.748;8.728;2023-09-08T19:08:44;230388.00;;;222.90
12234;BMP180;6179;51.748;8.728;2023-09-08T19:14:45;230388.00;;;222.90
12234;BMP180;6179;51.748;8.728;2023-09-08T19:20:47;230388.00;;;222.90
12234;BMP180;6179;51.748;8.728;2023-09-08T19:26:47;230388.00;;;222.90
12234;BMP180;6179;51.748;8.728;2023-09-08T19:32:48;230388.00;;;222.90
12234;BMP180;6179;51.748;8.728;2023-09-08T19:38:51;230388.00;;;222.90
12234;BMP180;6179;51.748;8.728;2023-09-08T19:44:52;230388.00;;;222.90
12234;BMP180;6179;51.748;8.728;2023-09-08T19:50:53;230388.00;;;222.90
12234;BMP180;6179;51.748;8.728;2023-09-08T19:56:53;230388.00;;;222.90
12234;BMP180;6179;51.748;8.728;2023-09-08T20:02:54;230388.00;;;222.90
12234;BMP180;6179;51.748;8.728;2023-09-08T20:08:57;230388.00;;;222.90
12234;BMP180;6179;51.748;8.728;2023-09-08T20:14:57;230388.00;;;222.90
12234;BMP180;6179;51.748;8.728;2023-09-08T20:21:00;230388.00;;;222.90
12234;BMP180;6179;51.748;8.728;2023-09-08T20:27:04;230388.00;;;222.90
12234;BMP180;6179;51.748;8.728;2023-09-08T20:33:05;230388.00;;;222.90
12234;BMP180;6179;51.748;8.728;2023-09-08T20:39:06;230388.00;;;222.90
12234;BMP180;6179;51.748;8.728;2023-09-08T20:45:08;230388.00;;;222.90
12234;BMP180;6179;51.748;8.728;2023-09-08T20:51:11;230388.00;;;222.90
12234;BMP180;6179;51.748;8.728;2023-09-08T20:57:12;230388.00;;;222.90
12234;BMP180;6179;51.748;8.728;2023-09-08T21:03:13;230388.00;;;222.90
12234;BMP180;6179;51.748;8.728;2023-09-08T21:09:13;230388.00;;;222.90
12234;BMP180;6179;51.748;8.728;2023-09-08T21:15:14;230388.00;;;222.90
12234;BMP180;6179;51.748;8.728;2023-09-08T21:21:15;230388.00;;;222.90
12234;BMP180;6179;51.748;8.728;2023-09-08T21:27:16;230388.00;;;222.90
12234;BMP180;6179;51.748;8.728;2023-09-08T21:33:17;230388.00;;;222.90
12234;BMP180;6179;51.748;8.728;2023-09-08T21:39:21;230388.00;;;222.90
12234;BMP180;6179;51.748;8.728;2023-09-08T21:45:21;230388.00;;;222.90
12234;BMP180;6179;51.748;8.728;2023-09-08T21:51:22;230388.00;;;222.90
12234;BMP180;6179;51.748;8.728;2023-09-08T21:57:24;230388.00;;;222.90
12234;BMP180;6179;51.748;8.728;2023-09-08T22:03:25;230388.00;;;222.90
12234;BMP180;6179;51.748;8.728;2023-09-08T22:09:26;230388.00;;;222.90
12234;BMP180;6179;51.748;8.728;2023-09-08T22:15:27;230388.00;;;222.90
12234;BMP180;6179;51.748;8.728;2023-09-08T22:21:28;230388.00;;;222.90
12234;BMP180;6179;51.748;8.728;2023-09-08T22:27:29;230388.00;;;222.90
12234;BMP180;6179;51.748;8.728;2023-09-08T22:33:29;230388.00;;;222.90
12234;BMP180;6179;51.748;8.728;2023-09-08T22:39:30;230388.00;;;222.90
12234;BMP180;6179;51.748;8.728;2023-09-08T22:45:33;230388.00;;;222.90
12234;BMP180;6179;51.748;8.728;2023-09-08T22:51:33;230388.00;;;222.90
12234;BMP180;6179;51.748;8.728;2023-09-08T22:57:34;230388.00;;;222.90
12234;BMP180;6179;51.748;8.728;2023-09-08T23:03:35;230388.00;;;222.90
12234;BMP180;6179;51.748;8.728;2023-09-08T23:09:36;230388.00;;;222.90
12234;BMP180;6179;51.748;8.728;2023-09-08T23:15:36;230388.00;;;222.90
12234;BMP180;6179;51.748;8.728;2023-09-08T23:21:37;230388.00;;;222.90
12234;BMP180;6179;51.748;8.728;2023-09-08T23:27:38;230388.00;;;222.90
12234;BMP180;6179;51.748;8.728;2023-09-08T23:33:39;230388.00;;;222.90
12234;BMP180;6179;51.748;8.728;2023-09-08T23:39:40;230388.00;;;222.90
12234;BMP180;6179;51.748;8.728;2023-09-08T23:45:45;230388.00;;;222.90
12234;BMP180;6179;51.748;8.728;2023-09-08T23:51:46;230388.00;;;222.90
12234;BMP180;6179;51.748;8.728;2023-09-08T23:57:47;230388.00;;;222.90
